Airport ID:KMHV
Update Time (UTC):24/07/2019 03:34
Wind Speed (Knots):10
Wind Direction (Magnetic):260
Temperature (°C):32
Dew Point (°C):10
Humidity (%):26
Altimeter (inHg):30.04
Density Altitude (Feet):5300
Visibility (Miles):10+
Clouds (Hundreds of feet):CLR
Present Weather:
METAR:METAR KMHV 240320Z AUTO 29007G14KT 10SM CLR 32/10 A3004 RMK A01

The data displayed is for advisory purposes only and is not to be used for flight planning or operations.

This page is not automatically refreshed. Reload the page to see current data.